createdAt,value
2023-04-02T00:01:17.330Z,82.05
2023-04-02T00:04:19.646Z,81.50
2023-04-02T00:06:46.489Z,81.34
2023-04-02T00:09:23.096Z,80.99
2023-04-02T00:11:51.717Z,81.99
2023-04-02T00:14:25.376Z,81.33
2023-04-02T00:16:53.440Z,81.32
2023-04-02T00:19:28.525Z,81.35
2023-04-02T00:21:57.093Z,81.16
2023-04-02T00:24:23.609Z,80.81
2023-04-02T00:26:52.345Z,81.39
2023-04-02T00:29:20.635Z,81.31
2023-04-02T00:31:50.304Z,82.65
2023-04-02T00:34:20.739Z,82.24
2023-04-02T00:36:48.402Z,81.68
2023-04-02T00:39:20.553Z,82.75
2023-04-02T00:41:47.799Z,83.09
2023-04-02T00:44:17.839Z,83.51
2023-04-02T00:46:46.073Z,83.64
2023-04-02T00:49:21.280Z,82.65
2023-04-02T00:51:51.337Z,83.33
2023-04-02T00:54:21.656Z,84.46
2023-04-02T00:56:51.700Z,82.51
2023-04-02T00:59:24.988Z,82.80
2023-04-02T01:01:56.645Z,83.38
2023-04-02T01:04:29.231Z,82.98
2023-04-02T01:06:56.177Z,82.44
2023-04-02T01:09:37.276Z,83.28
2023-04-02T01:12:29.950Z,83.94
2023-04-02T01:15:07.620Z,82.36
2023-04-02T01:17:51.733Z,82.79
2023-04-02T01:21:09.033Z,83.16
2023-04-02T01:23:43.353Z,81.56
2023-04-02T01:26:18.892Z,81.10
2023-04-02T01:29:01.185Z,82.32
2023-04-02T01:31:30.002Z,81.84
2023-04-02T01:33:56.704Z,81.61
2023-04-02T01:36:31.998Z,81.66
2023-04-02T01:39:07.380Z,82.92
2023-04-02T01:41:42.676Z,80.54
2023-04-02T01:44:16.639Z,81.14
2023-04-02T01:46:43.539Z,82.37
2023-04-02T01:49:13.622Z,81.45
2023-04-02T01:51:43.643Z,81.80
2023-04-02T01:54:11.131Z,82.12
2023-04-02T01:56:38.194Z,81.79
2023-04-02T01:59:04.898Z,81.04
2023-04-02T02:01:36.685Z,81.23
2023-04-02T02:04:04.854Z,81.89
2023-04-02T02:06:32.050Z,81.75
2023-04-02T02:09:02.456Z,82.73
2023-04-02T02:11:31.677Z,82.46
2023-04-02T02:14:00.342Z,82.82
2023-04-02T02:16:28.945Z,81.44
2023-04-02T02:19:01.767Z,81.26
2023-04-02T02:21:38.387Z,81.33
2023-04-02T02:24:07.667Z,81.41
2023-04-02T02:26:36.045Z,81.26
2023-04-02T02:29:06.865Z,79.63
2023-04-02T02:31:35.669Z,81.89
2023-04-02T02:34:12.490Z,81.13
2023-04-02T02:36:47.935Z,82.12
2023-04-02T02:39:17.643Z,81.15
2023-04-02T02:41:50.393Z,81.65
2023-04-02T02:44:21.355Z,81.62
2023-04-02T02:46:51.104Z,80.86
2023-04-02T02:49:24.186Z,80.79
2023-04-02T02:51:58.081Z,80.63
2023-04-02T02:54:27.308Z,81.03
2023-04-02T02:56:57.231Z,80.11
2023-04-02T02:59:24.411Z,80.56
2023-04-02T03:01:52.157Z,79.53
2023-04-02T03:04:22.832Z,80.48
2023-04-02T03:06:51.625Z,79.55
2023-04-02T03:09:28.172Z,78.47
2023-04-02T03:12:02.389Z,80.66
2023-04-02T03:14:33.875Z,81.31
2023-04-02T03:17:08.419Z,80.29
2023-04-02T03:19:43.710Z,79.82
2023-04-02T03:22:16.299Z,79.21
2023-04-02T03:24:52.582Z,79.09
2023-04-02T03:27:22.581Z,79.81
2023-04-02T03:30:01.643Z,80.10
2023-04-02T03:32:32.522Z,80.50
2023-04-02T03:35:06.353Z,78.96
2023-04-02T03:37:39.247Z,79.18
2023-04-02T03:40:10.244Z,78.61
2023-04-02T03:42:41.173Z,79.63
2023-04-02T03:45:16.542Z,79.99
2023-04-02T03:47:47.342Z,78.30
2023-04-02T03:50:24.615Z,78.25
2023-04-02T03:52:51.686Z,79.48
2023-04-02T03:55:22.102Z,80.24
2023-04-02T03:57:56.582Z,79.62
2023-04-02T04:00:31.381Z,79.28
2023-04-02T04:03:03.055Z,78.78
2023-04-02T04:05:35.515Z,79.85
2023-04-02T04:08:05.617Z,78.98
2023-04-02T04:10:34.238Z,78.66
2023-04-02T04:13:06.284Z,79.84
2023-04-02T04:15:39.087Z,79.18
2023-04-02T04:18:13.119Z,78.23
2023-04-02T04:20:47.024Z,79.88
2023-04-02T04:23:20.051Z,78.63
2023-04-02T04:25:47.246Z,77.47
2023-04-02T04:28:22.831Z,77.38
2023-04-02T04:30:56.658Z,77.39
2023-04-02T04:33:26.028Z,77.14
2023-04-02T04:35:57.742Z,77.68
2023-04-02T04:38:32.032Z,77.86
2023-04-02T04:41:04.338Z,79.67
2023-04-02T04:43:38.166Z,78.33
2023-04-02T04:46:10.179Z,78.38
2023-04-02T04:48:42.636Z,77.62
2023-04-02T04:51:19.530Z,78.51
2023-04-02T04:53:48.487Z,78.66
2023-04-02T04:56:19.822Z,78.78
2023-04-02T04:58:51.711Z,79.72
2023-04-02T05:01:24.118Z,80.34
2023-04-02T05:03:58.716Z,80.44
2023-04-02T05:06:35.756Z,80.08
2023-04-02T05:09:13.517Z,79.16
2023-04-02T05:11:44.429Z,80.53
2023-04-02T05:14:20.321Z,79.82
2023-04-02T05:16:53.054Z,79.02
2023-04-02T05:19:28.411Z,79.28
2023-04-02T05:22:02.319Z,80.14
2023-04-02T05:24:47.046Z,79.70
2023-04-02T05:27:24.014Z,79.73
2023-04-02T05:29:57.831Z,79.84
2023-04-02T05:32:31.256Z,79.96
2023-04-02T05:34:59.015Z,80.22
2023-04-02T05:37:29.955Z,80.01
2023-04-02T05:39:58.307Z,80.06
2023-04-02T05:42:28.018Z,80.86
2023-04-02T05:45:09.327Z,79.48
2023-04-02T05:47:39.296Z,79.31
2023-04-02T05:50:19.746Z,78.12
2023-04-02T05:52:51.472Z,78.74
2023-04-02T05:55:34.581Z,79.31
2023-04-02T05:58:33.883Z,78.46
2023-04-02T06:01:01.054Z,78.01
2023-04-02T06:03:37.412Z,77.76
2023-04-02T06:06:14.617Z,77.25
2023-04-02T06:08:50.807Z,77.97
2023-04-02T06:11:22.362Z,78.76
2023-04-02T06:13:49.212Z,78.26
2023-04-02T06:16:16.698Z,77.39
2023-04-02T06:18:44.184Z,76.49
2023-04-02T06:21:14.183Z,76.48
2023-04-02T06:23:47.206Z,77.66
2023-04-02T06:26:20.650Z,77.41
2023-04-02T06:28:50.545Z,78.30
2023-04-02T06:31:25.599Z,77.29
2023-04-02T06:33:52.383Z,77.77
2023-04-02T06:36:19.751Z,78.40
2023-04-02T06:38:48.817Z,78.39
2023-04-02T06:41:19.522Z,77.99
2023-04-02T06:43:51.109Z,77.40
2023-04-02T06:46:21.812Z,77.48
2023-04-02T06:48:53.013Z,78.31
2023-04-02T06:51:24.157Z,78.38
2023-04-02T06:53:52.144Z,78.64
2023-04-02T06:56:26.068Z,79.09
2023-04-02T06:58:52.609Z,79.34
2023-04-02T07:01:24.527Z,77.07
2023-04-02T07:03:51.644Z,77.15
2023-04-02T07:06:20.061Z,79.14
2023-04-02T07:08:47.069Z,78.77
2023-04-02T07:11:16.259Z,77.73
2023-04-02T07:13:44.437Z,78.21
2023-04-02T07:16:15.577Z,77.65
2023-04-02T07:18:42.926Z,77.58
2023-04-02T07:21:10.169Z,76.83
2023-04-02T07:23:39.442Z,75.98
2023-04-02T07:26:07.392Z,77.01
2023-04-02T07:28:35.494Z,76.00
2023-04-02T07:31:02.201Z,75.49
2023-04-02T07:33:30.594Z,75.10
2023-04-02T07:35:58.098Z,75.81
2023-04-02T07:38:24.895Z,76.48
2023-04-02T07:40:51.658Z,75.52
2023-04-02T07:43:18.277Z,74.43
2023-04-02T07:45:46.258Z,74.72
2023-04-02T07:48:14.204Z,75.94
2023-04-02T07:50:41.240Z,76.06
2023-04-02T07:53:08.184Z,75.29
2023-04-02T07:55:34.935Z,74.52
2023-04-02T07:58:01.601Z,74.05
2023-04-02T08:00:28.955Z,72.70
2023-04-02T08:02:57.128Z,72.66
2023-04-02T08:05:23.869Z,73.45
2023-04-02T08:07:54.662Z,73.16
2023-04-02T08:10:21.545Z,74.47
2023-04-02T08:12:48.309Z,74.67
2023-04-02T08:15:15.878Z,74.79
2023-04-02T08:17:42.736Z,74.49
2023-04-02T08:20:15.314Z,73.67
2023-04-02T08:22:41.942Z,74.14
2023-04-02T08:25:10.144Z,73.47
2023-04-02T08:27:36.794Z,73.66
2023-04-02T08:30:04.510Z,73.42
2023-04-02T08:32:31.155Z,71.74
2023-04-02T08:34:57.742Z,72.08
2023-04-02T08:37:25.727Z,72.54
2023-04-02T08:39:52.454Z,72.12
2023-04-02T08:42:24.013Z,71.15
2023-04-02T08:45:08.119Z,71.60
2023-04-02T08:47:42.702Z,69.36
2023-04-02T08:50:16.252Z,68.98
2023-04-02T08:52:44.266Z,68.65
2023-04-02T08:55:20.033Z,68.41
2023-04-02T08:57:51.540Z,68.63
2023-04-02T09:00:30.367Z,68.89
2023-04-02T09:03:00.428Z,68.14
2023-04-02T09:05:31.402Z,68.93
2023-04-02T09:08:02.678Z,68.39
2023-04-02T09:10:37.713Z,67.88
2023-04-02T09:13:14.083Z,69.13
2023-04-02T09:15:40.767Z,68.86
2023-04-02T09:18:13.845Z,69.12
2023-04-02T09:20:40.623Z,69.84
2023-04-02T09:23:16.149Z,68.51
2023-04-02T09:25:57.323Z,68.37
2023-04-02T09:28:29.872Z,67.37
2023-04-02T09:31:05.571Z,66.12
2023-04-02T09:33:46.962Z,67.16
2023-04-02T09:36:33.425Z,66.27
2023-04-02T09:39:04.950Z,66.05
2023-04-02T09:41:59.018Z,67.10
2023-04-02T09:44:31.781Z,65.38
2023-04-02T09:47:01.657Z,64.80
2023-04-02T09:49:31.109Z,65.49
2023-04-02T09:52:39.900Z,63.91
2023-04-02T09:55:24.603Z,64.05
2023-04-02T09:58:06.216Z,64.28
2023-04-02T10:00:32.957Z,62.97
2023-04-02T10:03:02.888Z,62.07
2023-04-02T10:05:40.608Z,62.32
2023-04-02T10:08:18.172Z,60.14
2023-04-02T10:10:49.647Z,61.04
2023-04-02T10:13:23.029Z,62.09
2023-04-02T10:15:54.455Z,62.45
2023-04-02T10:18:30.181Z,62.46
2023-04-02T10:21:00.246Z,62.69
2023-04-02T10:23:30.734Z,62.68
2023-04-02T10:26:12.889Z,60.68
2023-04-02T10:28:53.411Z,57.70
2023-04-02T10:31:24.098Z,60.02
2023-04-02T10:33:54.888Z,61.51
2023-04-02T10:36:34.332Z,61.12
2023-04-02T10:39:06.329Z,60.75
2023-04-02T10:41:44.910Z,61.45
2023-04-02T10:44:28.144Z,62.10
2023-04-02T10:47:12.186Z,61.56
2023-04-02T10:49:43.914Z,61.95
2023-04-02T10:52:15.220Z,62.30
2023-04-02T10:54:48.432Z,60.96
2023-04-02T10:57:28.612Z,60.27
2023-04-02T11:00:00.342Z,61.42
2023-04-02T11:02:36.062Z,61.87
2023-04-02T11:05:13.537Z,61.66
2023-04-02T11:07:51.466Z,61.09
2023-04-02T11:10:20.226Z,61.09
2023-04-02T11:12:56.028Z,60.96
2023-04-02T11:15:23.402Z,60.59
2023-04-02T11:17:53.273Z,59.41
2023-04-02T11:20:42.983Z,59.70
2023-04-02T11:23:12.006Z,60.19
2023-04-02T11:25:39.693Z,60.55
2023-04-02T11:28:25.152Z,58.94
2023-04-02T11:30:52.167Z,59.14
2023-04-02T11:33:41.959Z,58.07
2023-04-02T11:36:44.249Z,57.50
2023-04-02T11:39:17.289Z,56.63
2023-04-02T11:42:05.183Z,57.21
2023-04-02T11:44:33.399Z,57.04
2023-04-02T11:47:17.288Z,57.64
2023-04-02T11:50:02.381Z,58.20
2023-04-02T11:52:33.015Z,58.54
2023-04-02T11:55:23.458Z,55.97
2023-04-02T11:58:05.635Z,56.43
2023-04-02T12:00:59.093Z,54.67
2023-04-02T12:03:47.819Z,56.20
2023-04-02T12:06:29.433Z,55.46
2023-04-02T12:09:07.504Z,55.35
2023-04-02T12:11:36.312Z,54.34
2023-04-02T12:14:27.386Z,55.76
2023-04-02T12:16:56.010Z,54.99
2023-04-02T12:19:23.458Z,55.06
2023-04-02T12:21:52.122Z,53.47
2023-04-02T12:24:22.639Z,53.73
2023-04-02T12:26:49.431Z,52.82
2023-04-02T12:29:24.038Z,53.87
2023-04-02T12:31:50.871Z,53.28
2023-04-02T12:34:21.065Z,54.41
2023-04-02T12:36:55.869Z,53.13
2023-04-02T12:39:23.939Z,52.40
2023-04-02T12:41:52.041Z,53.17
2023-04-02T12:44:20.484Z,54.91
2023-04-02T12:46:48.287Z,55.91
2023-04-02T12:49:28.798Z,56.09
2023-04-02T12:51:56.712Z,56.19
2023-04-02T12:54:24.328Z,56.32
2023-04-02T12:56:51.488Z,56.08
2023-04-02T12:59:28.579Z,57.74
2023-04-02T13:01:56.487Z,57.31
2023-04-02T13:04:46.749Z,57.38
2023-04-02T13:07:22.314Z,56.27
2023-04-02T13:13:16.693Z,57.92
2023-04-02T13:15:45.157Z,55.91
2023-04-02T13:18:22.938Z,56.16
2023-04-02T13:21:05.742Z,54.06
2023-04-02T13:23:36.031Z,53.71
2023-04-02T13:29:22.453Z,56.79
2023-04-02T13:31:52.525Z,55.54
2023-04-02T13:34:19.792Z,56.24
2023-04-02T13:36:48.288Z,55.60
2023-04-02T13:39:15.073Z,55.77
2023-04-02T13:41:44.009Z,56.03
2023-04-02T13:44:22.466Z,56.16
2023-04-02T13:46:49.202Z,54.98
2023-04-02T13:49:17.241Z,55.77
2023-04-02T13:51:47.103Z,56.48
2023-04-02T13:54:23.956Z,56.03
2023-04-02T13:56:50.734Z,55.08
2023-04-02T13:59:17.342Z,55.80
2023-04-02T14:01:46.247Z,55.31
2023-04-02T14:04:17.037Z,54.31
2023-04-02T14:07:11.173Z,54.77
2023-04-02T14:09:50.667Z,52.98
2023-04-02T14:12:25.030Z,53.92
2023-04-02T14:15:06.126Z,53.13
2023-04-02T14:17:45.600Z,53.01
2023-04-02T14:20:25.528Z,52.63
2023-04-02T14:23:08.747Z,50.69
2023-04-02T14:25:44.808Z,52.15
2023-04-02T14:28:19.652Z,52.05
2023-04-02T14:30:53.733Z,51.79
2023-04-02T14:33:33.971Z,52.01
2023-04-02T14:36:11.911Z,51.78
2023-04-02T14:38:44.069Z,49.98
2023-04-02T14:41:17.696Z,49.55
2023-04-02T14:43:52.310Z,50.38
2023-04-02T14:46:19.076Z,51.08
2023-04-02T14:48:50.499Z,50.82
2023-04-02T14:51:24.814Z,50.91
2023-04-02T14:53:59.308Z,49.51
2023-04-02T14:56:28.819Z,48.80
2023-04-02T14:59:11.545Z,47.96
2023-04-02T15:01:43.715Z,48.19
2023-04-02T15:04:15.798Z,48.44
2023-04-02T15:06:45.642Z,48.99
2023-04-02T15:09:18.811Z,48.78
2023-04-02T15:11:51.078Z,48.12
2023-04-02T15:14:21.366Z,47.29
2023-04-02T15:16:47.975Z,46.74
2023-04-02T15:19:16.870Z,48.62
2023-04-02T15:22:01.075Z,48.50
2023-04-02T15:24:41.366Z,49.81
2023-04-02T15:27:25.604Z,50.46
2023-04-02T15:30:00.914Z,50.34
2023-04-02T15:32:36.153Z,49.01
2023-04-02T15:35:15.531Z,49.14
2023-04-02T15:37:51.589Z,47.95
2023-04-02T15:40:31.267Z,47.91
2023-04-02T15:43:11.354Z,47.17
2023-04-02T15:45:51.015Z,47.89
2023-04-02T15:48:30.755Z,47.85
2023-04-02T15:51:09.965Z,47.51
2023-04-02T15:53:55.906Z,48.72
2023-04-02T15:56:26.686Z,49.54
2023-04-02T15:59:06.472Z,47.64
2023-04-02T16:01:38.513Z,48.52
2023-04-02T16:04:36.824Z,47.73
2023-04-02T16:07:30.099Z,48.01
2023-04-02T16:10:03.470Z,49.09
2023-04-02T16:12:31.613Z,48.93
2023-04-02T16:15:08.024Z,49.00
2023-04-02T16:17:40.424Z,48.32
2023-04-02T16:20:17.945Z,47.30
2023-04-02T16:23:00.056Z,49.13
2023-04-02T16:25:31.915Z,48.77
2023-04-02T16:28:12.271Z,48.52
2023-04-02T16:30:54.874Z,48.98
2023-04-02T16:33:44.306Z,49.82
2023-04-02T16:36:22.393Z,50.47
2023-04-02T16:38:57.967Z,50.65
2023-04-02T16:41:33.851Z,50.86
2023-04-02T16:44:07.801Z,49.71
2023-04-02T16:46:46.428Z,50.80
2023-04-02T16:49:23.341Z,50.24
2023-04-02T16:52:01.023Z,49.79
2023-04-02T16:54:32.051Z,50.92
2023-04-02T16:57:14.044Z,50.58
2023-04-02T16:59:47.935Z,51.20
2023-04-02T17:02:31.243Z,50.44
2023-04-02T17:05:05.928Z,50.42
2023-04-02T17:07:43.714Z,49.81
2023-04-02T17:10:26.943Z,50.05
2023-04-02T17:13:02.279Z,50.80
2023-04-02T17:15:34.579Z,50.01
2023-04-02T17:18:13.522Z,50.60
2023-04-02T17:20:40.222Z,50.14
2023-04-02T17:23:11.433Z,50.45
2023-04-02T17:25:44.799Z,50.46
2023-04-02T17:28:15.158Z,50.49
2023-04-02T17:30:45.791Z,50.41
2023-04-02T17:33:15.888Z,50.76
2023-04-02T17:35:58.141Z,51.97
2023-04-02T17:38:29.481Z,51.34
2023-04-02T17:41:05.706Z,52.66
2023-04-02T17:43:41.078Z,51.89
2023-04-02T17:46:17.894Z,51.71
2023-04-02T17:48:48.249Z,52.93
2023-04-02T17:51:24.728Z,52.67
2023-04-02T17:54:04.446Z,52.84
2023-04-02T17:56:48.015Z,53.52
2023-04-02T17:59:24.683Z,53.09
2023-04-02T18:02:00.169Z,53.11
2023-04-02T18:04:37.520Z,52.99
2023-04-02T18:07:15.742Z,52.92
2023-04-02T18:09:53.329Z,53.33
2023-04-02T18:12:30.345Z,53.74
2023-04-02T18:15:05.532Z,53.70
2023-04-02T18:17:42.153Z,53.18
2023-04-02T18:20:20.649Z,53.40
2023-04-02T18:22:56.207Z,53.25
2023-04-02T18:25:39.946Z,53.40
2023-04-02T18:28:23.492Z,53.67
2023-04-02T18:30:57.686Z,54.43
2023-04-02T18:33:40.997Z,54.76
2023-04-02T18:36:18.896Z,55.07
2023-04-02T18:38:52.455Z,54.88
2023-04-02T18:41:33.749Z,54.38
2023-04-02T18:44:14.093Z,54.23
2023-04-02T18:46:49.262Z,54.23
2023-04-02T18:49:26.560Z,54.25
2023-04-02T18:52:00.266Z,54.53
2023-04-02T18:54:38.342Z,54.73
2023-04-02T18:57:12.281Z,54.93
2023-04-02T18:59:42.161Z,54.52
2023-04-02T19:02:29.503Z,54.35
2023-04-02T19:05:01.149Z,54.08
2023-04-02T19:07:33.119Z,54.98
2023-04-02T19:10:26.221Z,54.81
2023-04-02T19:12:52.815Z,54.83
2023-04-02T19:15:19.604Z,55.17
2023-04-02T19:17:57.454Z,54.78
2023-04-02T19:20:33.131Z,55.23
2023-04-02T19:23:13.927Z,55.21
2023-04-02T19:26:00.649Z,55.20
2023-04-02T19:28:32.698Z,55.62
2023-04-02T19:31:13.379Z,55.36
2023-04-02T19:33:50.200Z,55.14
2023-04-02T19:36:33.994Z,55.00
2023-04-02T19:39:14.758Z,54.60
2023-04-02T19:41:45.743Z,54.93
2023-04-02T19:44:14.071Z,55.03
2023-04-02T19:46:41.279Z,55.30
2023-04-02T19:49:12.586Z,54.78
2023-04-02T19:51:39.178Z,54.87
2023-04-02T19:54:07.131Z,55.04
2023-04-02T19:56:33.825Z,55.28
2023-04-02T19:59:07.840Z,55.29
2023-04-02T20:01:43.626Z,54.97
2023-04-02T20:04:10.247Z,55.31
2023-04-02T20:06:36.984Z,54.93
2023-04-02T20:09:03.926Z,55.09
2023-04-02T20:11:31.985Z,55.48
2023-04-02T20:13:58.585Z,55.35
2023-04-02T20:16:25.217Z,54.95
2023-04-02T20:18:52.544Z,55.26
2023-04-02T20:21:19.194Z,55.53
2023-04-02T20:23:45.782Z,55.31
2023-04-02T20:26:12.367Z,55.37
2023-04-02T20:28:40.304Z,55.32
2023-04-02T20:31:08.588Z,55.49
2023-04-02T20:33:35.461Z,55.51
2023-04-02T20:36:08.845Z,55.52
2023-04-02T20:38:36.141Z,55.22
2023-04-02T20:41:03.528Z,55.80
2023-04-02T20:43:30.193Z,55.90
2023-04-02T20:45:59.895Z,56.36
2023-04-02T20:48:28.119Z,56.42
2023-04-02T20:50:54.720Z,56.24
2023-04-02T20:53:21.417Z,56.62
2023-04-02T20:55:48.636Z,56.68
2023-04-02T20:58:16.849Z,57.56
2023-04-02T21:00:43.588Z,57.94
2023-04-02T21:03:11.903Z,58.00
2023-04-02T21:05:43.065Z,58.62
2023-04-02T21:08:09.785Z,59.26
2023-04-02T21:10:36.790Z,58.76
2023-04-02T21:13:03.588Z,58.35
2023-04-02T21:15:30.149Z,57.75
2023-04-02T21:17:56.704Z,58.60
2023-04-02T21:20:24.769Z,58.18
2023-04-02T21:22:51.469Z,57.92
2023-04-02T21:25:18.067Z,58.79
2023-04-02T21:27:44.741Z,58.38
2023-04-02T21:30:14.343Z,58.69
2023-04-02T21:32:40.998Z,59.72
2023-04-02T21:35:08.692Z,58.63
2023-04-02T21:37:36.718Z,58.26
2023-04-02T21:40:03.910Z,58.78
2023-04-02T21:42:30.491Z,58.83
2023-04-02T21:44:57.079Z,59.10
2023-04-02T21:47:23.880Z,58.45
2023-04-02T21:49:50.484Z,58.81
2023-04-02T21:52:17.109Z,58.38
2023-04-02T21:54:45.195Z,58.54
2023-04-02T21:57:11.917Z,58.10
2023-04-02T21:59:38.503Z,58.10
2023-04-02T22:02:05.301Z,58.25
2023-04-02T22:04:32.019Z,58.34
2023-04-02T22:06:58.874Z,57.99
2023-04-02T22:09:26.343Z,58.79
2023-04-02T22:11:55.664Z,58.71
2023-04-02T22:14:22.599Z,58.47
2023-04-02T22:16:49.471Z,59.09
2023-04-02T22:19:17.060Z,60.04
2023-04-02T22:21:43.755Z,60.80
2023-04-02T22:24:13.515Z,61.06
2023-04-02T22:26:40.895Z,61.14
2023-04-02T22:29:09.058Z,60.92
2023-04-02T22:31:35.919Z,60.36
2023-04-02T22:34:04.960Z,60.80
2023-04-02T22:36:31.664Z,61.04
2023-04-02T22:38:59.128Z,60.69
2023-04-02T22:41:27.719Z,60.88
2023-04-02T22:43:55.405Z,60.71
2023-04-02T22:46:25.697Z,60.30
2023-04-02T22:48:52.785Z,60.21
2023-04-02T22:51:21.238Z,60.11
2023-04-02T22:53:48.446Z,59.78
2023-04-02T22:56:18.145Z,59.32
2023-04-02T22:58:44.782Z,58.96
2023-04-02T23:01:14.573Z,59.25
2023-04-02T23:03:42.799Z,59.51
2023-04-02T23:06:11.826Z,59.49
2023-04-02T23:08:39.284Z,59.22
2023-04-02T23:11:08.021Z,59.22
2023-04-02T23:13:36.541Z,58.99
2023-04-02T23:16:05.033Z,59.44
2023-04-02T23:18:32.315Z,59.51
2023-04-02T23:21:00.572Z,59.24
2023-04-02T23:23:27.665Z,59.39
2023-04-02T23:26:03.047Z,59.42
2023-04-02T23:28:29.744Z,59.46
2023-04-02T23:30:56.399Z,59.57
2023-04-02T23:33:22.955Z,59.75
2023-04-02T23:35:50.122Z,59.43
2023-04-02T23:38:18.044Z,59.52
2023-04-02T23:40:44.581Z,59.87
2023-04-02T23:43:11.300Z,59.56
2023-04-02T23:45:37.956Z,59.81
2023-04-02T23:48:05.386Z,59.74
2023-04-02T23:50:31.997Z,59.80
2023-04-02T23:52:58.541Z,59.88
2023-04-02T23:55:26.609Z,60.29
2023-04-02T23:57:53.166Z,59.87
